sensor_id;sensor_type;location;lat;lon;timestamp;P1;durP1;ratioP1;P2;durP2;ratioP2
13706;SDS011;6925;47.816;13.072;2023-08-06T00:01:56;4.85;;;2.75;;
13706;SDS011;6925;47.816;13.072;2023-08-06T00:04:23;4.32;;;2.78;;
13706;SDS011;6925;47.816;13.072;2023-08-06T00:06:50;4.43;;;2.78;;
13706;SDS011;6925;47.816;13.072;2023-08-06T00:09:17;4.20;;;2.95;;
13706;SDS011;6925;47.816;13.072;2023-08-06T00:11:44;3.80;;;2.45;;
13706;SDS011;6925;47.816;13.072;2023-08-06T00:14:13;4.80;;;2.40;;
13706;SDS011;6925;47.816;13.072;2023-08-06T00:16:42;5.03;;;2.50;;
13706;SDS011;6925;47.816;13.072;2023-08-06T00:19:10;6.13;;;2.83;;
13706;SDS011;6925;47.816;13.072;2023-08-06T00:21:37;3.85;;;2.53;;
13706;SDS011;6925;47.816;13.072;2023-08-06T00:26:31;4.75;;;2.50;;
13706;SDS011;6925;47.816;13.072;2023-08-06T00:28:58;4.85;;;2.97;;
13706;SDS011;6925;47.816;13.072;2023-08-06T00:31:27;4.35;;;2.20;;
13706;SDS011;6925;47.816;13.072;2023-08-06T00:33:54;4.47;;;3.00;;
13706;SDS011;6925;47.816;13.072;2023-08-06T00:36:21;4.63;;;2.30;;
13706;SDS011;6925;47.816;13.072;2023-08-06T00:38:48;4.60;;;2.92;;
13706;SDS011;6925;47.816;13.072;2023-08-06T00:41:15;4.15;;;2.80;;
13706;SDS011;6925;47.816;13.072;2023-08-06T00:43:42;4.63;;;2.72;;
13706;SDS011;6925;47.816;13.072;2023-08-06T00:46:09;4.20;;;2.53;;
13706;SDS011;6925;47.816;13.072;2023-08-06T00:48:38;3.85;;;2.10;;
13706;SDS011;6925;47.816;13.072;2023-08-06T00:51:06;4.10;;;2.60;;
13706;SDS011;6925;47.816;13.072;2023-08-06T00:53:33;4.60;;;2.40;;
13706;SDS011;6925;47.816;13.072;2023-08-06T00:58:28;5.13;;;2.90;;
13706;SDS011;6925;47.816;13.072;2023-08-06T01:00:55;4.90;;;2.65;;
13706;SDS011;6925;47.816;13.072;2023-08-06T01:03:22;3.60;;;2.28;;
13706;SDS011;6925;47.816;13.072;2023-08-06T01:05:51;4.05;;;2.90;;
13706;SDS011;6925;47.816;13.072;2023-08-06T01:08:21;4.18;;;2.13;;
13706;SDS011;6925;47.816;13.072;2023-08-06T01:11:03;6.55;;;2.50;;
13706;SDS011;6925;47.816;13.072;2023-08-06T01:13:38;5.20;;;2.60;;
13706;SDS011;6925;47.816;13.072;2023-08-06T01:16:09;3.70;;;2.50;;
13706;SDS011;6925;47.816;13.072;2023-08-06T01:18:37;4.88;;;2.60;;
13706;SDS011;6925;47.816;13.072;2023-08-06T01:21:08;3.80;;;2.20;;
13706;SDS011;6925;47.816;13.072;2023-08-06T01:23:35;7.82;;;2.60;;
13706;SDS011;6925;47.816;13.072;2023-08-06T01:28:33;6.13;;;2.67;;
13706;SDS011;6925;47.816;13.072;2023-08-06T01:31:07;4.63;;;2.70;;
13706;SDS011;6925;47.816;13.072;2023-08-06T01:33:42;5.80;;;2.97;;
13706;SDS011;6925;47.816;13.072;2023-08-06T01:36:13;4.43;;;2.70;;
13706;SDS011;6925;47.816;13.072;2023-08-06T01:38:42;4.35;;;2.42;;
13706;SDS011;6925;47.816;13.072;2023-08-06T01:41:10;4.90;;;2.38;;
13706;SDS011;6925;47.816;13.072;2023-08-06T01:43:37;4.75;;;3.17;;
13706;SDS011;6925;47.816;13.072;2023-08-06T01:46:04;4.13;;;2.90;;
13706;SDS011;6925;47.816;13.072;2023-08-06T01:48:31;4.28;;;2.53;;
13706;SDS011;6925;47.816;13.072;2023-08-06T01:50:58;4.80;;;2.72;;
13706;SDS011;6925;47.816;13.072;2023-08-06T01:53:26;3.75;;;2.60;;
13706;SDS011;6925;47.816;13.072;2023-08-06T01:55:53;3.95;;;2.22;;
13706;SDS011;6925;47.816;13.072;2023-08-06T01:58:20;4.05;;;2.15;;
13706;SDS011;6925;47.816;13.072;2023-08-06T02:00:47;6.22;;;3.10;;
13706;SDS011;6925;47.816;13.072;2023-08-06T02:03:14;3.90;;;2.40;;
13706;SDS011;6925;47.816;13.072;2023-08-06T02:05:41;4.80;;;2.20;;
13706;SDS011;6925;47.816;13.072;2023-08-06T02:08:08;3.88;;;2.22;;
13706;SDS011;6925;47.816;13.072;2023-08-06T02:10:37;3.83;;;2.17;;
13706;SDS011;6925;47.816;13.072;2023-08-06T02:13:04;4.72;;;2.15;;
13706;SDS011;6925;47.816;13.072;2023-08-06T02:15:31;4.40;;;2.63;;
13706;SDS011;6925;47.816;13.072;2023-08-06T02:17:58;3.40;;;2.05;;
13706;SDS011;6925;47.816;13.072;2023-08-06T02:20:26;3.92;;;2.38;;
13706;SDS011;6925;47.816;13.072;2023-08-06T02:22:53;5.38;;;2.33;;
13706;SDS011;6925;47.816;13.072;2023-08-06T02:25:20;4.18;;;2.10;;
13706;SDS011;6925;47.816;13.072;2023-08-06T02:30:15;3.50;;;2.13;;
13706;SDS011;6925;47.816;13.072;2023-08-06T02:35:09;3.72;;;2.05;;
13706;SDS011;6925;47.816;13.072;2023-08-06T02:37:36;4.60;;;2.00;;
13706;SDS011;6925;47.816;13.072;2023-08-06T02:40:03;5.38;;;2.58;;
13706;SDS011;6925;47.816;13.072;2023-08-06T02:42:31;4.00;;;2.15;;
13706;SDS011;6925;47.816;13.072;2023-08-06T02:44:59;4.28;;;2.08;;
13706;SDS011;6925;47.816;13.072;2023-08-06T02:47:27;3.42;;;2.15;;
13706;SDS011;6925;47.816;13.072;2023-08-06T02:49:54;5.72;;;2.40;;
13706;SDS011;6925;47.816;13.072;2023-08-06T02:52:21;3.78;;;2.50;;
13706;SDS011;6925;47.816;13.072;2023-08-06T02:54:48;4.28;;;2.50;;
13706;SDS011;6925;47.816;13.072;2023-08-06T02:57:15;4.95;;;2.47;;
13706;SDS011;6925;47.816;13.072;2023-08-06T02:59:42;4.60;;;2.70;;
13706;SDS011;6925;47.816;13.072;2023-08-06T03:02:11;5.35;;;2.13;;
13706;SDS011;6925;47.816;13.072;2023-08-06T03:04:38;4.32;;;2.40;;
13706;SDS011;6925;47.816;13.072;2023-08-06T03:07:05;3.33;;;2.00;;
13706;SDS011;6925;47.816;13.072;2023-08-06T03:11:59;5.18;;;2.05;;
13706;SDS011;6925;47.816;13.072;2023-08-06T03:14:26;3.70;;;2.05;;
13706;SDS011;6925;47.816;13.072;2023-08-06T03:16:53;4.35;;;2.40;;
13706;SDS011;6925;47.816;13.072;2023-08-06T03:19:21;4.53;;;2.75;;
13706;SDS011;6925;47.816;13.072;2023-08-06T03:21:48;3.72;;;2.17;;
13706;SDS011;6925;47.816;13.072;2023-08-06T03:24:15;4.78;;;2.45;;
13706;SDS011;6925;47.816;13.072;2023-08-06T03:26:42;3.88;;;2.15;;
13706;SDS011;6925;47.816;13.072;2023-08-06T03:29:09;10.57;;;2.70;;
13706;SDS011;6925;47.816;13.072;2023-08-06T03:31:37;5.15;;;3.05;;
13706;SDS011;6925;47.816;13.072;2023-08-06T03:34:04;5.05;;;3.00;;
13706;SDS011;6925;47.816;13.072;2023-08-06T03:36:33;6.90;;;3.38;;
13706;SDS011;6925;47.816;13.072;2023-08-06T03:39:00;5.15;;;3.83;;
13706;SDS011;6925;47.816;13.072;2023-08-06T03:41:27;5.80;;;3.85;;
13706;SDS011;6925;47.816;13.072;2023-08-06T03:43:54;4.50;;;3.38;;
13706;SDS011;6925;47.816;13.072;2023-08-06T03:46:21;5.70;;;3.47;;
13706;SDS011;6925;47.816;13.072;2023-08-06T03:48:48;6.22;;;3.67;;
13706;SDS011;6925;47.816;13.072;2023-08-06T03:51:15;5.63;;;3.70;;
13706;SDS011;6925;47.816;13.072;2023-08-06T03:53:43;6.22;;;3.60;;
13706;SDS011;6925;47.816;13.072;2023-08-06T03:56:10;7.65;;;4.20;;
13706;SDS011;6925;47.816;13.072;2023-08-06T03:58:37;6.10;;;4.07;;
13706;SDS011;6925;47.816;13.072;2023-08-06T04:01:04;4.97;;;3.00;;
13706;SDS011;6925;47.816;13.072;2023-08-06T04:03:31;5.10;;;2.95;;
13706;SDS011;6925;47.816;13.072;2023-08-06T04:05:58;5.43;;;3.38;;
13706;SDS011;6925;47.816;13.072;2023-08-06T04:08:26;5.40;;;2.90;;
13706;SDS011;6925;47.816;13.072;2023-08-06T04:10:54;5.32;;;3.28;;
13706;SDS011;6925;47.816;13.072;2023-08-06T04:13:21;4.50;;;3.10;;
13706;SDS011;6925;47.816;13.072;2023-08-06T04:15:48;4.40;;;3.08;;
13706;SDS011;6925;47.816;13.072;2023-08-06T04:20:42;6.18;;;3.75;;
13706;SDS011;6925;47.816;13.072;2023-08-06T04:23:10;5.57;;;2.97;;
13706;SDS011;6925;47.816;13.072;2023-08-06T04:28:06;5.40;;;3.50;;
13706;SDS011;6925;47.816;13.072;2023-08-06T04:30:33;4.85;;;3.20;;
13706;SDS011;6925;47.816;13.072;2023-08-06T04:33:01;4.85;;;3.33;;
13706;SDS011;6925;47.816;13.072;2023-08-06T04:35:28;4.40;;;2.60;;
13706;SDS011;6925;47.816;13.072;2023-08-06T04:37:55;5.45;;;3.17;;
13706;SDS011;6925;47.816;13.072;2023-08-06T04:40:25;4.07;;;2.80;;
13706;SDS011;6925;47.816;13.072;2023-08-06T04:42:53;3.63;;;2.05;;
13706;SDS011;6925;47.816;13.072;2023-08-06T04:45:21;5.07;;;2.30;;
13706;SDS011;6925;47.816;13.072;2023-08-06T04:47:49;4.15;;;2.20;;
13706;SDS011;6925;47.816;13.072;2023-08-06T04:50:16;4.53;;;2.50;;
13706;SDS011;6925;47.816;13.072;2023-08-06T04:52:43;4.70;;;2.17;;
13706;SDS011;6925;47.816;13.072;2023-08-06T04:55:10;4.40;;;2.40;;
13706;SDS011;6925;47.816;13.072;2023-08-06T04:57:37;5.05;;;2.05;;
13706;SDS011;6925;47.816;13.072;2023-08-06T05:00:05;5.18;;;2.38;;
13706;SDS011;6925;47.816;13.072;2023-08-06T05:02:34;4.65;;;2.47;;
13706;SDS011;6925;47.816;13.072;2023-08-06T05:05:03;4.75;;;1.77;;
13706;SDS011;6925;47.816;13.072;2023-08-06T05:07:31;4.90;;;2.28;;
13706;SDS011;6925;47.816;13.072;2023-08-06T05:09:58;3.95;;;2.25;;
13706;SDS011;6925;47.816;13.072;2023-08-06T05:12:25;3.95;;;1.90;;
13706;SDS011;6925;47.816;13.072;2023-08-06T05:14:52;3.80;;;2.25;;
13706;SDS011;6925;47.816;13.072;2023-08-06T05:17:19;3.78;;;2.17;;
13706;SDS011;6925;47.816;13.072;2023-08-06T05:19:49;3.80;;;1.83;;
13706;SDS011;6925;47.816;13.072;2023-08-06T05:22:16;5.28;;;2.17;;
13706;SDS011;6925;47.816;13.072;2023-08-06T05:24:43;3.80;;;2.10;;
13706;SDS011;6925;47.816;13.072;2023-08-06T05:27:10;3.63;;;1.90;;
13706;SDS011;6925;47.816;13.072;2023-08-06T05:29:37;3.60;;;2.10;;
13706;SDS011;6925;47.816;13.072;2023-08-06T05:32:04;3.35;;;2.00;;
13706;SDS011;6925;47.816;13.072;2023-08-06T05:34:32;3.85;;;2.30;;
13706;SDS011;6925;47.816;13.072;2023-08-06T05:37:00;3.83;;;2.28;;
13706;SDS011;6925;47.816;13.072;2023-08-06T05:39:27;3.33;;;2.00;;
13706;SDS011;6925;47.816;13.072;2023-08-06T05:41:54;4.05;;;2.10;;
13706;SDS011;6925;47.816;13.072;2023-08-06T05:44:21;5.43;;;1.90;;
13706;SDS011;6925;47.816;13.072;2023-08-06T05:46:49;3.58;;;2.05;;
13706;SDS011;6925;47.816;13.072;2023-08-06T05:49:18;4.93;;;2.30;;
13706;SDS011;6925;47.816;13.072;2023-08-06T05:54:14;4.15;;;2.03;;
13706;SDS011;6925;47.816;13.072;2023-08-06T05:56:41;4.68;;;2.00;;
13706;SDS011;6925;47.816;13.072;2023-08-06T05:59:08;3.70;;;1.70;;
13706;SDS011;6925;47.816;13.072;2023-08-06T06:01:35;3.50;;;1.50;;
13706;SDS011;6925;47.816;13.072;2023-08-06T06:04:02;3.40;;;1.73;;
13706;SDS011;6925;47.816;13.072;2023-08-06T06:06:29;3.05;;;1.60;;
13706;SDS011;6925;47.816;13.072;2023-08-06T06:08:56;3.50;;;1.77;;
13706;SDS011;6925;47.816;13.072;2023-08-06T06:11:25;3.25;;;1.58;;
13706;SDS011;6925;47.816;13.072;2023-08-06T06:13:52;5.53;;;1.65;;
13706;SDS011;6925;47.816;13.072;2023-08-06T06:18:46;3.15;;;1.42;;
13706;SDS011;6925;47.816;13.072;2023-08-06T06:21:13;2.95;;;1.50;;
13706;SDS011;6925;47.816;13.072;2023-08-06T06:23:40;4.13;;;1.40;;
13706;SDS011;6925;47.816;13.072;2023-08-06T06:26:07;3.42;;;1.35;;
13706;SDS011;6925;47.816;13.072;2023-08-06T06:28:36;4.57;;;1.20;;
13706;SDS011;6925;47.816;13.072;2023-08-06T06:31:03;3.60;;;1.70;;
13706;SDS011;6925;47.816;13.072;2023-08-06T06:33:31;2.85;;;1.48;;
13706;SDS011;6925;47.816;13.072;2023-08-06T06:35:58;4.93;;;1.60;;
13706;SDS011;6925;47.816;13.072;2023-08-06T06:38:25;4.40;;;1.42;;
13706;SDS011;6925;47.816;13.072;2023-08-06T06:40:55;4.60;;;1.42;;
13706;SDS011;6925;47.816;13.072;2023-08-06T06:43:23;3.00;;;1.33;;
13706;SDS011;6925;47.816;13.072;2023-08-06T06:45:53;2.83;;;1.40;;
13706;SDS011;6925;47.816;13.072;2023-08-06T06:48:23;3.53;;;1.60;;
13706;SDS011;6925;47.816;13.072;2023-08-06T06:50:51;4.22;;;1.70;;
13706;SDS011;6925;47.816;13.072;2023-08-06T06:55:45;4.20;;;1.58;;
13706;SDS011;6925;47.816;13.072;2023-08-06T06:58:14;2.40;;;1.20;;
13706;SDS011;6925;47.816;13.072;2023-08-06T07:00:42;4.28;;;1.55;;
13706;SDS011;6925;47.816;13.072;2023-08-06T07:05:37;6.25;;;1.70;;
13706;SDS011;6925;47.816;13.072;2023-08-06T07:08:04;4.15;;;1.70;;
13706;SDS011;6925;47.816;13.072;2023-08-06T07:10:31;3.38;;;1.25;;
13706;SDS011;6925;47.816;13.072;2023-08-06T07:12:58;3.30;;;1.20;;
13706;SDS011;6925;47.816;13.072;2023-08-06T07:15:25;4.10;;;1.50;;
13706;SDS011;6925;47.816;13.072;2023-08-06T07:17:52;2.50;;;1.10;;
13706;SDS011;6925;47.816;13.072;2023-08-06T07:20:21;3.22;;;1.42;;
13706;SDS011;6925;47.816;13.072;2023-08-06T07:22:48;2.90;;;1.30;;
13706;SDS011;6925;47.816;13.072;2023-08-06T07:25:15;3.92;;;1.45;;
13706;SDS011;6925;47.816;13.072;2023-08-06T07:27:42;5.43;;;2.05;;
13706;SDS011;6925;47.816;13.072;2023-08-06T07:30:09;4.30;;;2.15;;
13706;SDS011;6925;47.816;13.072;2023-08-06T07:32:37;4.43;;;2.50;;
13706;SDS011;6925;47.816;13.072;2023-08-06T07:35:04;4.82;;;2.30;;
13706;SDS011;6925;47.816;13.072;2023-08-06T07:37:34;3.63;;;2.03;;
13706;SDS011;6925;47.816;13.072;2023-08-06T07:40:02;2.20;;;1.20;;
13706;SDS011;6925;47.816;13.072;2023-08-06T07:42:29;2.95;;;1.60;;
13706;SDS011;6925;47.816;13.072;2023-08-06T07:44:58;3.13;;;1.65;;
13706;SDS011;6925;47.816;13.072;2023-08-06T07:47:25;3.00;;;1.52;;
13706;SDS011;6925;47.816;13.072;2023-08-06T07:49:52;6.35;;;2.03;;
13706;SDS011;6925;47.816;13.072;2023-08-06T07:52:20;3.97;;;1.75;;
13706;SDS011;6925;47.816;13.072;2023-08-06T07:54:48;2.80;;;1.83;;
13706;SDS011;6925;47.816;13.072;2023-08-06T07:57:15;2.92;;;1.50;;
13706;SDS011;6925;47.816;13.072;2023-08-06T07:59:42;3.20;;;1.50;;
13706;SDS011;6925;47.816;13.072;2023-08-06T08:02:09;3.00;;;1.58;;
13706;SDS011;6925;47.816;13.072;2023-08-06T08:04:36;3.70;;;1.77;;
13706;SDS011;6925;47.816;13.072;2023-08-06T08:07:03;3.53;;;2.00;;
13706;SDS011;6925;47.816;13.072;2023-08-06T08:09:31;3.28;;;2.00;;
13706;SDS011;6925;47.816;13.072;2023-08-06T08:11:59;3.90;;;1.77;;
13706;SDS011;6925;47.816;13.072;2023-08-06T08:14:29;4.13;;;2.20;;
13706;SDS011;6925;47.816;13.072;2023-08-06T08:17:00;3.35;;;1.50;;
13706;SDS011;6925;47.816;13.072;2023-08-06T08:19:27;2.90;;;1.60;;
13706;SDS011;6925;47.816;13.072;2023-08-06T08:21:55;5.30;;;1.85;;
13706;SDS011;6925;47.816;13.072;2023-08-06T08:24:22;6.50;;;1.80;;
13706;SDS011;6925;47.816;13.072;2023-08-06T08:26:50;3.80;;;1.20;;
13706;SDS011;6925;47.816;13.072;2023-08-06T08:31:45;3.50;;;1.00;;
13706;SDS011;6925;47.816;13.072;2023-08-06T08:34:14;3.10;;;1.00;;
13706;SDS011;6925;47.816;13.072;2023-08-06T08:36:41;3.55;;;1.30;;
13706;SDS011;6925;47.816;13.072;2023-08-06T08:41:36;4.25;;;1.55;;
13706;SDS011;6925;47.816;13.072;2023-08-06T08:44:04;4.45;;;1.40;;
13706;SDS011;6925;47.816;13.072;2023-08-06T08:46:37;5.80;;;1.45;;
13706;SDS011;6925;47.816;13.072;2023-08-06T08:49:07;2.70;;;1.20;;
13706;SDS011;6925;47.816;13.072;2023-08-06T08:54:02;4.10;;;1.40;;
13706;SDS011;6925;47.816;13.072;2023-08-06T08:56:30;2.83;;;1.15;;
13706;SDS011;6925;47.816;13.072;2023-08-06T08:58:57;2.50;;;1.17;;
13706;SDS011;6925;47.816;13.072;2023-08-06T09:01:25;3.83;;;1.20;;
13706;SDS011;6925;47.816;13.072;2023-08-06T09:03:55;2.63;;;1.40;;
13706;SDS011;6925;47.816;13.072;2023-08-06T09:06:25;3.63;;;1.50;;
13706;SDS011;6925;47.816;13.072;2023-08-06T09:08:56;3.28;;;0.93;;
13706;SDS011;6925;47.816;13.072;2023-08-06T09:11:28;3.33;;;0.80;;
13706;SDS011;6925;47.816;13.072;2023-08-06T09:14:03;3.53;;;1.08;;
13706;SDS011;6925;47.816;13.072;2023-08-06T09:16:32;2.85;;;1.27;;
13706;SDS011;6925;47.816;13.072;2023-08-06T09:19:07;1.95;;;1.02;;
13706;SDS011;6925;47.816;13.072;2023-08-06T09:21:36;3.35;;;1.40;;
13706;SDS011;6925;47.816;13.072;2023-08-06T09:24:07;2.35;;;1.10;;
13706;SDS011;6925;47.816;13.072;2023-08-06T09:26:36;2.70;;;1.20;;
13706;SDS011;6925;47.816;13.072;2023-08-06T09:29:04;2.85;;;1.30;;
13706;SDS011;6925;47.816;13.072;2023-08-06T09:31:32;3.30;;;1.30;;
13706;SDS011;6925;47.816;13.072;2023-08-06T09:34:00;2.33;;;1.10;;
13706;SDS011;6925;47.816;13.072;2023-08-06T09:36:29;2.65;;;1.33;;
13706;SDS011;6925;47.816;13.072;2023-08-06T09:38:56;2.60;;;1.15;;
13706;SDS011;6925;47.816;13.072;2023-08-06T09:41:26;3.22;;;1.20;;
13706;SDS011;6925;47.816;13.072;2023-08-06T09:43:54;1.80;;;0.77;;
13706;SDS011;6925;47.816;13.072;2023-08-06T09:48:48;4.53;;;1.20;;
13706;SDS011;6925;47.816;13.072;2023-08-06T09:51:16;2.50;;;0.80;;
13706;SDS011;6925;47.816;13.072;2023-08-06T09:53:45;2.47;;;0.90;;
13706;SDS011;6925;47.816;13.072;2023-08-06T09:56:15;2.88;;;1.10;;
13706;SDS011;6925;47.816;13.072;2023-08-06T09:58:44;1.40;;;0.80;;
13706;SDS011;6925;47.816;13.072;2023-08-06T10:01:15;2.50;;;0.70;;
13706;SDS011;6925;47.816;13.072;2023-08-06T10:03:44;1.85;;;0.60;;
13706;SDS011;6925;47.816;13.072;2023-08-06T10:06:13;2.85;;;0.80;;
13706;SDS011;6925;47.816;13.072;2023-08-06T10:11:09;2.63;;;0.98;;
13706;SDS011;6925;47.816;13.072;2023-08-06T10:13:37;1.83;;;0.98;;
13706;SDS011;6925;47.816;13.072;2023-08-06T10:16:05;2.55;;;0.80;;
13706;SDS011;6925;47.816;13.072;2023-08-06T10:18:32;1.85;;;0.70;;
13706;SDS011;6925;47.816;13.072;2023-08-06T10:20:59;1.23;;;0.70;;
13706;SDS011;6925;47.816;13.072;2023-08-06T10:23:32;2.55;;;0.90;;
13706;SDS011;6925;47.816;13.072;2023-08-06T10:26:01;1.90;;;0.90;;
13706;SDS011;6925;47.816;13.072;2023-08-06T10:28:35;1.85;;;0.57;;
13706;SDS011;6925;47.816;13.072;2023-08-06T10:31:03;1.45;;;0.77;;
13706;SDS011;6925;47.816;13.072;2023-08-06T10:33:40;1.17;;;0.57;;
13706;SDS011;6925;47.816;13.072;2023-08-06T10:36:09;1.55;;;0.50;;
13706;SDS011;6925;47.816;13.072;2023-08-06T10:38:44;1.08;;;0.60;;
13706;SDS011;6925;47.816;13.072;2023-08-06T10:41:15;0.45;;;0.40;;
13706;SDS011;6925;47.816;13.072;2023-08-06T10:43:46;0.77;;;0.40;;
13706;SDS011;6925;47.816;13.072;2023-08-06T10:46:21;1.27;;;0.82;;
13706;SDS011;6925;47.816;13.072;2023-08-06T10:48:49;0.47;;;0.40;;
13706;SDS011;6925;47.816;13.072;2023-08-06T10:51:17;1.00;;;0.50;;
13706;SDS011;6925;47.816;13.072;2023-08-06T10:53:44;4.15;;;0.88;;
13706;SDS011;6925;47.816;13.072;2023-08-06T10:56:12;1.05;;;0.60;;
13706;SDS011;6925;47.816;13.072;2023-08-06T10:58:40;0.73;;;0.50;;
13706;SDS011;6925;47.816;13.072;2023-08-06T11:03:36;0.80;;;0.50;;
13706;SDS011;6925;47.816;13.072;2023-08-06T11:06:03;1.15;;;0.50;;
13706;SDS011;6925;47.816;13.072;2023-08-06T11:08:33;3.70;;;0.70;;
13706;SDS011;6925;47.816;13.072;2023-08-06T11:11:07;0.45;;;0.30;;
13706;SDS011;6925;47.816;13.072;2023-08-06T11:13:36;3.00;;;0.50;;
13706;SDS011;6925;47.816;13.072;2023-08-06T11:16:03;1.73;;;0.50;;
13706;SDS011;6925;47.816;13.072;2023-08-06T11:18:32;1.23;;;0.55;;
13706;SDS011;6925;47.816;13.072;2023-08-06T11:21:00;0.68;;;0.47;;
13706;SDS011;6925;47.816;13.072;2023-08-06T11:23:27;1.20;;;0.50;;
13706;SDS011;6925;47.816;13.072;2023-08-06T11:25:55;0.60;;;0.43;;
13706;SDS011;6925;47.816;13.072;2023-08-06T11:28:23;0.47;;;0.40;;
13706;SDS011;6925;47.816;13.072;2023-08-06T11:30:50;1.08;;;0.52;;
13706;SDS011;6925;47.816;13.072;2023-08-06T11:33:19;0.73;;;0.50;;
13706;SDS011;6925;47.816;13.072;2023-08-06T11:35:49;1.50;;;0.60;;
13706;SDS011;6925;47.816;13.072;2023-08-06T11:38:16;1.10;;;0.70;;
13706;SDS011;6925;47.816;13.072;2023-08-06T11:40:43;1.58;;;0.60;;
13706;SDS011;6925;47.816;13.072;2023-08-06T11:43:11;1.02;;;0.50;;
13706;SDS011;6925;47.816;13.072;2023-08-06T11:45:39;1.00;;;0.40;;
13706;SDS011;6925;47.816;13.072;2023-08-06T11:48:06;1.02;;;0.50;;
13706;SDS011;6925;47.816;13.072;2023-08-06T11:50:36;1.08;;;0.60;;
13706;SDS011;6925;47.816;13.072;2023-08-06T11:53:05;0.55;;;0.45;;
13706;SDS011;6925;47.816;13.072;2023-08-06T11:55:32;1.58;;;0.50;;
13706;SDS011;6925;47.816;13.072;2023-08-06T11:58:02;2.60;;;0.60;;
13706;SDS011;6925;47.816;13.072;2023-08-06T12:00:30;0.38;;;0.30;;
13706;SDS011;6925;47.816;13.072;2023-08-06T12:02:58;1.65;;;0.60;;
13706;SDS011;6925;47.816;13.072;2023-08-06T12:05:29;3.22;;;0.40;;
13706;SDS011;6925;47.816;13.072;2023-08-06T12:07:58;0.80;;;0.30;;
13706;SDS011;6925;47.816;13.072;2023-08-06T12:10:28;1.52;;;0.45;;
13706;SDS011;6925;47.816;13.072;2023-08-06T12:12:56;0.13;;;0.13;;
13706;SDS011;6925;47.816;13.072;2023-08-06T12:15:23;0.40;;;0.38;;
13706;SDS011;6925;47.816;13.072;2023-08-06T12:17:50;1.50;;;0.57;;
13706;SDS011;6925;47.816;13.072;2023-08-06T12:22:44;2.13;;;0.40;;
13706;SDS011;6925;47.816;13.072;2023-08-06T12:25:12;0.50;;;0.40;;
13706;SDS011;6925;47.816;13.072;2023-08-06T12:27:41;0.85;;;0.65;;
13706;SDS011;6925;47.816;13.072;2023-08-06T12:30:09;1.15;;;0.60;;
13706;SDS011;6925;47.816;13.072;2023-08-06T12:32:37;0.98;;;0.30;;
13706;SDS011;6925;47.816;13.072;2023-08-06T12:35:05;0.20;;;0.20;;
13706;SDS011;6925;47.816;13.072;2023-08-06T12:37:33;1.45;;;0.75;;
13706;SDS011;6925;47.816;13.072;2023-08-06T12:40:00;0.60;;;0.40;;
13706;SDS011;6925;47.816;13.072;2023-08-06T12:42:27;0.52;;;0.30;;
13706;SDS011;6925;47.816;13.072;2023-08-06T12:47:23;0.63;;;0.43;;
13706;SDS011;6925;47.816;13.072;2023-08-06T12:49:50;0.75;;;0.50;;
13706;SDS011;6925;47.816;13.072;2023-08-06T12:52:17;0.50;;;0.40;;
13706;SDS011;6925;47.816;13.072;2023-08-06T12:54:45;1.85;;;0.40;;
13706;SDS011;6925;47.816;13.072;2023-08-06T12:57:12;0.55;;;0.40;;
13706;SDS011;6925;47.816;13.072;2023-08-06T12:59:39;2.75;;;0.43;;
13706;SDS011;6925;47.816;13.072;2023-08-06T13:02:07;0.38;;;0.38;;
13706;SDS011;6925;47.816;13.072;2023-08-06T13:04:35;0.30;;;0.30;;
13706;SDS011;6925;47.816;13.072;2023-08-06T13:07:02;1.05;;;0.60;;
13706;SDS011;6925;47.816;13.072;2023-08-06T13:09:31;0.93;;;0.70;;
13706;SDS011;6925;47.816;13.072;2023-08-06T13:14:30;0.30;;;0.30;;
13706;SDS011;6925;47.816;13.072;2023-08-06T13:16:57;0.40;;;0.40;;
13706;SDS011;6925;47.816;13.072;2023-08-06T13:19:25;0.77;;;0.22;;
13706;SDS011;6925;47.816;13.072;2023-08-06T13:21:59;0.15;;;0.15;;
13706;SDS011;6925;47.816;13.072;2023-08-06T13:24:29;0.43;;;0.20;;
13706;SDS011;6925;47.816;13.072;2023-08-06T13:26:56;0.45;;;0.32;;
13706;SDS011;6925;47.816;13.072;2023-08-06T13:29:24;0.30;;;0.30;;
13706;SDS011;6925;47.816;13.072;2023-08-06T13:31:52;0.43;;;0.30;;
13706;SDS011;6925;47.816;13.072;2023-08-06T13:36:47;0.20;;;0.20;;
13706;SDS011;6925;47.816;13.072;2023-08-06T13:39:15;0.90;;;0.30;;
13706;SDS011;6925;47.816;13.072;2023-08-06T13:41:42;1.02;;;0.40;;
13706;SDS011;6925;47.816;13.072;2023-08-06T13:46:39;0.55;;;0.40;;
13706;SDS011;6925;47.816;13.072;2023-08-06T13:49:06;0.47;;;0.30;;
13706;SDS011;6925;47.816;13.072;2023-08-06T13:54:02;0.43;;;0.20;;
13706;SDS011;6925;47.816;13.072;2023-08-06T13:56:29;0.40;;;0.30;;
13706;SDS011;6925;47.816;13.072;2023-08-06T13:58:56;2.72;;;0.35;;
13706;SDS011;6925;47.816;13.072;2023-08-06T14:01:23;1.48;;;0.50;;
13706;SDS011;6925;47.816;13.072;2023-08-06T14:03:50;1.40;;;0.43;;
13706;SDS011;6925;47.816;13.072;2023-08-06T14:06:18;0.65;;;0.40;;
13706;SDS011;6925;47.816;13.072;2023-08-06T14:11:13;0.52;;;0.47;;
13706;SDS011;6925;47.816;13.072;2023-08-06T14:13:41;1.05;;;0.52;;
13706;SDS011;6925;47.816;13.072;2023-08-06T14:18:35;2.78;;;0.40;;
13706;SDS011;6925;47.816;13.072;2023-08-06T14:21:03;0.57;;;0.40;;
13706;SDS011;6925;47.816;13.072;2023-08-06T14:23:30;0.82;;;0.45;;
13706;SDS011;6925;47.816;13.072;2023-08-06T14:28:26;0.20;;;0.20;;
13706;SDS011;6925;47.816;13.072;2023-08-06T14:30:53;1.02;;;0.45;;
13706;SDS011;6925;47.816;13.072;2023-08-06T14:33:20;0.28;;;0.28;;
13706;SDS011;6925;47.816;13.072;2023-08-06T14:35:48;1.08;;;0.38;;
13706;SDS011;6925;47.816;13.072;2023-08-06T14:38:15;0.43;;;0.43;;
13706;SDS011;6925;47.816;13.072;2023-08-06T14:40:43;0.38;;;0.30;;
13706;SDS011;6925;47.816;13.072;2023-08-06T14:43:10;0.88;;;0.60;;
13706;SDS011;6925;47.816;13.072;2023-08-06T14:45:39;0.47;;;0.30;;
13706;SDS011;6925;47.816;13.072;2023-08-06T14:48:06;1.58;;;0.40;;
13706;SDS011;6925;47.816;13.072;2023-08-06T14:53:00;0.43;;;0.40;;
13706;SDS011;6925;47.816;13.072;2023-08-06T14:55:28;0.32;;;0.30;;
13706;SDS011;6925;47.816;13.072;2023-08-06T14:57:55;0.30;;;0.28;;
13706;SDS011;6925;47.816;13.072;2023-08-06T15:00:22;0.20;;;0.20;;
13706;SDS011;6925;47.816;13.072;2023-08-06T15:02:50;1.02;;;0.30;;
13706;SDS011;6925;47.816;13.072;2023-08-06T15:05:18;0.30;;;0.30;;
13706;SDS011;6925;47.816;13.072;2023-08-06T15:07:45;0.68;;;0.40;;
13706;SDS011;6925;47.816;13.072;2023-08-06T15:10:13;1.33;;;0.50;;
13706;SDS011;6925;47.816;13.072;2023-08-06T15:12:41;1.95;;;0.57;;
13706;SDS011;6925;47.816;13.072;2023-08-06T15:15:08;0.73;;;0.40;;
13706;SDS011;6925;47.816;13.072;2023-08-06T15:17:35;1.48;;;0.40;;
13706;SDS011;6925;47.816;13.072;2023-08-06T15:20:04;0.63;;;0.40;;
13706;SDS011;6925;47.816;13.072;2023-08-06T15:22:32;0.73;;;0.60;;
13706;SDS011;6925;47.816;13.072;2023-08-06T15:24:59;0.45;;;0.40;;
13706;SDS011;6925;47.816;13.072;2023-08-06T15:27:27;1.05;;;0.60;;
13706;SDS011;6925;47.816;13.072;2023-08-06T15:29:54;1.23;;;0.73;;
13706;SDS011;6925;47.816;13.072;2023-08-06T15:34:49;0.52;;;0.40;;
13706;SDS011;6925;47.816;13.072;2023-08-06T15:37:18;0.63;;;0.40;;
13706;SDS011;6925;47.816;13.072;2023-08-06T15:39:45;1.23;;;0.57;;
13706;SDS011;6925;47.816;13.072;2023-08-06T15:44:40;0.50;;;0.47;;
13706;SDS011;6925;47.816;13.072;2023-08-06T15:47:07;0.40;;;0.40;;
13706;SDS011;6925;47.816;13.072;2023-08-06T15:49:35;0.73;;;0.50;;
13706;SDS011;6925;47.816;13.072;2023-08-06T15:52:02;0.85;;;0.55;;
13706;SDS011;6925;47.816;13.072;2023-08-06T15:54:31;1.35;;;0.50;;
13706;SDS011;6925;47.816;13.072;2023-08-06T15:56:58;0.90;;;0.60;;
13706;SDS011;6925;47.816;13.072;2023-08-06T15:59:27;1.45;;;0.70;;
13706;SDS011;6925;47.816;13.072;2023-08-06T16:01:54;0.93;;;0.40;;
13706;SDS011;6925;47.816;13.072;2023-08-06T16:04:23;0.40;;;0.40;;
13706;SDS011;6925;47.816;13.072;2023-08-06T16:06:50;0.65;;;0.40;;